createdAt,value
2018-08-31T00:00:47.753Z,13.70
2018-08-31T00:04:54.809Z,13.80
2018-08-31T00:11:07.204Z,13.80
2018-08-31T00:15:01.516Z,13.70
2018-08-31T00:18:58.456Z,13.70
2018-08-31T00:22:54.752Z,13.70
2018-08-31T00:27:12.091Z,13.60
2018-08-31T00:31:28.947Z,13.50
2018-08-31T00:35:39.480Z,13.50
2018-08-31T00:42:03.644Z,13.40
2018-08-31T00:46:02.212Z,13.30
2018-08-31T00:49:57.248Z,13.20
2018-08-31T00:53:54.136Z,13.20
2018-08-31T00:57:49.659Z,13.20
2018-08-31T01:01:46.220Z,13.20
2018-08-31T01:05:43.764Z,13.20
2018-08-31T01:09:43.786Z,13.20
2018-08-31T01:13:42.809Z,13.20
2018-08-31T01:17:36.761Z,13.20
2018-08-31T01:21:30.863Z,13.20
2018-08-31T01:25:25.088Z,13.20
2018-08-31T01:29:19.252Z,13.10
2018-08-31T01:33:16.638Z,13.20
2018-08-31T01:37:16.356Z,13.10
2018-08-31T01:45:55.791Z,13.00
2018-08-31T01:54:23.338Z,12.90
2018-08-31T01:58:17.365Z,12.90
2018-08-31T02:02:18.326Z,13.00
2018-08-31T02:06:13.222Z,13.00
2018-08-31T02:10:10.670Z,12.90
2018-08-31T02:14:06.631Z,12.90
2018-08-31T02:18:00.581Z,12.80
2018-08-31T02:21:54.543Z,12.80
2018-08-31T02:25:48.899Z,12.70
2018-08-31T02:29:42.972Z,12.70
2018-08-31T02:33:37.271Z,12.70
2018-08-31T02:37:31.362Z,12.70
2018-08-31T02:41:25.418Z,12.60
2018-08-31T02:45:21.542Z,12.60
2018-08-31T02:49:15.687Z,12.60
2018-08-31T02:53:09.954Z,12.60
2018-08-31T02:57:03.928Z,12.60
2018-08-31T03:00:57.856Z,12.60
2018-08-31T03:04:51.831Z,12.60
2018-08-31T03:08:46.318Z,12.50
2018-08-31T03:12:40.355Z,12.50
2018-08-31T03:16:34.717Z,12.50
2018-08-31T03:20:28.847Z,12.50
2018-08-31T03:24:23.317Z,12.50
2018-08-31T03:28:17.383Z,12.50
2018-08-31T03:32:11.351Z,12.50
2018-08-31T03:36:05.298Z,12.40
2018-08-31T03:39:59.387Z,12.40
2018-08-31T03:43:53.318Z,12.40
2018-08-31T03:47:47.474Z,12.40
2018-08-31T03:51:41.614Z,12.30
2018-08-31T03:55:35.846Z,12.30
2018-08-31T03:59:35.952Z,12.20
2018-08-31T04:03:29.976Z,12.20
2018-08-31T04:07:24.039Z,12.30
2018-08-31T04:11:18.163Z,12.30
2018-08-31T04:15:12.189Z,12.30
2018-08-31T04:19:15.963Z,12.30
2018-08-31T04:23:10.124Z,12.30
2018-08-31T04:27:04.235Z,12.20
2018-08-31T04:30:58.183Z,12.20
2018-08-31T04:34:52.299Z,12.20
2018-08-31T04:38:46.674Z,12.20
2018-08-31T04:42:40.902Z,12.20
2018-08-31T04:46:34.865Z,12.30
2018-08-31T04:50:28.892Z,12.30
2018-08-31T04:54:22.823Z,12.30
2018-08-31T04:58:16.850Z,12.30
2018-08-31T05:02:10.933Z,12.40
2018-08-31T05:06:04.924Z,12.40
2018-08-31T05:09:59.170Z,12.40
2018-08-31T05:13:53.480Z,12.40
2018-08-31T05:17:47.531Z,12.50
2018-08-31T05:21:41.668Z,12.50
2018-08-31T05:25:35.689Z,12.60
2018-08-31T05:29:29.699Z,12.70
2018-08-31T05:33:23.849Z,12.80
2018-08-31T05:37:17.995Z,12.90
2018-08-31T05:41:12.000Z,13.00
2018-08-31T05:45:06.143Z,13.10
2018-08-31T05:49:00.553Z,13.20
2018-08-31T05:52:54.494Z,13.40
2018-08-31T05:56:48.484Z,13.50
2018-08-31T06:00:42.504Z,13.60
2018-08-31T06:04:36.473Z,13.70
2018-08-31T06:08:30.493Z,13.80
2018-08-31T06:12:24.644Z,14.00
2018-08-31T06:16:18.675Z,14.00
2018-08-31T06:20:12.712Z,14.20
2018-08-31T06:24:06.801Z,14.30
2018-08-31T06:28:01.793Z,14.40
2018-08-31T06:31:55.752Z,14.50
2018-08-31T06:35:50.000Z,14.60
2018-08-31T06:39:43.940Z,14.70
2018-08-31T06:43:38.323Z,14.90
2018-08-31T06:47:32.448Z,15.00
2018-08-31T06:51:26.459Z,15.20
2018-08-31T06:55:20.483Z,15.40
2018-08-31T06:59:14.587Z,15.50
2018-08-31T07:03:08.713Z,15.70
2018-08-31T07:07:03.496Z,15.90
2018-08-31T07:10:57.480Z,16.10
2018-08-31T07:14:52.103Z,16.10
2018-08-31T07:18:47.729Z,16.10
2018-08-31T07:22:41.769Z,16.20
2018-08-31T07:26:37.705Z,16.30
2018-08-31T07:30:43.529Z,16.40
2018-08-31T07:34:37.474Z,16.50
2018-08-31T07:38:31.665Z,16.60
2018-08-31T07:42:25.697Z,16.70
2018-08-31T07:46:19.833Z,16.80
2018-08-31T07:50:14.251Z,16.80
2018-08-31T07:54:08.348Z,16.80
2018-08-31T07:58:03.146Z,16.90
2018-08-31T08:01:57.116Z,17.00
2018-08-31T08:05:51.322Z,17.10
2018-08-31T08:09:45.374Z,17.20
2018-08-31T08:13:39.422Z,17.30
2018-08-31T08:17:33.546Z,17.50
2018-08-31T08:21:27.584Z,17.50
2018-08-31T08:25:21.661Z,17.50
2018-08-31T08:29:15.677Z,17.80
2018-08-31T08:33:09.710Z,18.10
2018-08-31T08:37:03.919Z,18.10
2018-08-31T08:40:58.066Z,18.20
2018-08-31T08:44:57.196Z,18.20
2018-08-31T08:48:51.381Z,18.20
2018-08-31T08:52:45.623Z,18.10
2018-08-31T08:56:41.427Z,18.00
2018-08-31T09:00:35.455Z,18.00
2018-08-31T09:04:30.379Z,18.20
2018-08-31T09:08:24.771Z,18.30
2018-08-31T09:12:22.957Z,18.40
2018-08-31T09:16:17.511Z,18.40
2018-08-31T09:20:11.594Z,18.60
2018-08-31T09:24:05.727Z,18.70
2018-08-31T09:27:59.835Z,18.80
2018-08-31T09:31:55.092Z,18.90
2018-08-31T09:35:49.137Z,19.00
2018-08-31T09:39:44.377Z,19.30
2018-08-31T09:43:39.718Z,19.40
2018-08-31T09:47:35.128Z,19.20
2018-08-31T09:51:29.090Z,19.40
2018-08-31T09:55:23.090Z,19.30
2018-08-31T09:59:27.027Z,19.30
2018-08-31T10:03:25.379Z,19.50
2018-08-31T10:07:19.579Z,19.70
2018-08-31T10:11:14.141Z,19.70
2018-08-31T10:15:08.336Z,20.00
2018-08-31T10:19:02.731Z,19.90
2018-08-31T10:22:56.774Z,20.10
2018-08-31T10:26:51.084Z,20.00
2018-08-31T10:30:45.132Z,19.70
2018-08-31T10:34:42.678Z,19.60
2018-08-31T10:38:37.032Z,19.50
2018-08-31T10:42:31.558Z,19.50
2018-08-31T10:46:25.943Z,19.70
2018-08-31T10:50:20.222Z,19.80
2018-08-31T10:54:15.395Z,20.00
2018-08-31T10:58:10.474Z,20.20
2018-08-31T11:02:04.413Z,20.30
2018-08-31T11:05:58.415Z,20.60
2018-08-31T11:09:54.499Z,20.80
2018-08-31T11:13:48.592Z,21.20
2018-08-31T11:17:42.593Z,21.50
2018-08-31T11:21:36.734Z,21.40
2018-08-31T11:25:32.715Z,21.50
2018-08-31T11:29:27.062Z,21.10
2018-08-31T11:33:22.043Z,20.80
2018-08-31T11:37:16.091Z,20.50
2018-08-31T11:41:10.329Z,20.30
2018-08-31T11:45:05.721Z,20.40
2018-08-31T11:48:59.836Z,20.80
2018-08-31T11:52:54.575Z,21.00
2018-08-31T11:56:48.832Z,21.10
2018-08-31T12:00:44.968Z,20.80
2018-08-31T12:04:38.982Z,20.70
2018-08-31T12:08:33.286Z,20.30
2018-08-31T12:12:27.855Z,20.20
2018-08-31T12:16:22.926Z,20.30
2018-08-31T12:20:18.788Z,20.40
2018-08-31T12:24:13.869Z,20.60
2018-08-31T12:28:08.487Z,20.70
2018-08-31T12:32:02.540Z,20.80
2018-08-31T12:35:56.888Z,20.70
2018-08-31T12:39:50.906Z,20.50
2018-08-31T12:43:45.036Z,20.40
2018-08-31T12:47:39.623Z,20.60
2018-08-31T12:51:35.018Z,21.00
2018-08-31T12:55:29.116Z,21.00
2018-08-31T12:59:23.132Z,20.90
2018-08-31T13:03:17.261Z,20.80
2018-08-31T13:07:11.359Z,20.90
2018-08-31T13:11:06.144Z,21.10
2018-08-31T13:15:00.168Z,21.00
2018-08-31T13:18:55.665Z,21.20
2018-08-31T13:22:49.960Z,21.20
2018-08-31T13:26:44.143Z,21.00
2018-08-31T13:30:38.072Z,21.00
2018-08-31T13:34:32.120Z,21.30
2018-08-31T13:38:26.246Z,21.40
2018-08-31T13:42:22.629Z,21.40
2018-08-31T13:46:19.970Z,21.70
2018-08-31T13:50:14.720Z,21.80
2018-08-31T13:54:09.172Z,21.80
2018-08-31T13:58:03.292Z,22.10
2018-08-31T14:01:57.327Z,22.40
2018-08-31T14:05:51.266Z,22.20
2018-08-31T14:09:45.508Z,21.90
2018-08-31T14:13:39.533Z,21.90
2018-08-31T14:17:33.598Z,22.00
2018-08-31T14:21:27.828Z,22.00
2018-08-31T14:25:21.976Z,21.90
2018-08-31T14:29:16.540Z,21.70
2018-08-31T14:33:11.247Z,21.80
2018-08-31T14:37:05.619Z,21.60
2018-08-31T14:40:59.573Z,21.50
2018-08-31T14:44:53.598Z,21.50
2018-08-31T14:48:47.633Z,21.60
2018-08-31T14:52:41.689Z,21.50
2018-08-31T14:56:35.799Z,21.30
2018-08-31T15:00:29.911Z,21.40
2018-08-31T15:04:24.067Z,21.30
2018-08-31T15:08:18.277Z,21.00
2018-08-31T15:12:13.152Z,21.00
2018-08-31T15:16:07.592Z,21.20
2018-08-31T15:20:01.596Z,21.40
2018-08-31T15:23:55.675Z,21.30
2018-08-31T15:27:49.650Z,21.30
2018-08-31T15:31:43.653Z,21.30
2018-08-31T15:35:37.681Z,21.30
2018-08-31T15:39:32.634Z,21.00
2018-08-31T15:43:26.807Z,20.80
2018-08-31T15:47:21.012Z,20.70
2018-08-31T15:51:15.837Z,20.80
2018-08-31T15:55:09.905Z,21.00
2018-08-31T15:59:05.084Z,21.10
2018-08-31T16:02:59.143Z,21.20
2018-08-31T16:06:53.424Z,21.20
2018-08-31T16:10:47.839Z,21.10
2018-08-31T16:14:41.911Z,21.20
2018-08-31T16:18:36.207Z,21.20
2018-08-31T16:22:30.499Z,20.80
2018-08-31T16:26:24.601Z,20.40
2018-08-31T16:30:19.687Z,20.10
2018-08-31T16:34:13.713Z,19.90
2018-08-31T16:38:07.853Z,19.80
2018-08-31T16:42:02.045Z,19.70
2018-08-31T16:45:56.220Z,19.60
2018-08-31T16:49:50.567Z,19.50
2018-08-31T16:53:44.541Z,19.50
2018-08-31T16:57:38.582Z,19.50
2018-08-31T17:01:32.560Z,19.50
2018-08-31T17:05:26.616Z,19.60
2018-08-31T17:09:20.604Z,19.60
2018-08-31T17:13:14.528Z,19.70
2018-08-31T17:17:08.524Z,19.70
2018-08-31T17:21:02.501Z,19.80
2018-08-31T17:24:56.690Z,19.80
2018-08-31T17:28:55.981Z,19.60
2018-08-31T17:32:55.488Z,19.50
2018-08-31T17:36:54.972Z,19.30
2018-08-31T17:40:48.991Z,19.20
2018-08-31T17:44:43.077Z,19.00
2018-08-31T17:48:37.065Z,19.10
2018-08-31T17:52:31.628Z,19.00
2018-08-31T17:56:25.790Z,19.00
2018-08-31T18:00:19.773Z,18.90
2018-08-31T18:04:13.996Z,18.80
2018-08-31T18:08:09.029Z,18.70
2018-08-31T18:12:03.035Z,18.60
2018-08-31T18:15:57.157Z,18.60
2018-08-31T18:19:51.004Z,18.50
2018-08-31T18:23:45.088Z,18.50
2018-08-31T18:27:39.143Z,18.40
2018-08-31T18:31:33.119Z,18.30
2018-08-31T18:35:27.124Z,18.20
2018-08-31T18:39:21.135Z,18.20
2018-08-31T18:43:16.502Z,18.10
2018-08-31T18:47:10.813Z,18.10
2018-08-31T18:51:04.812Z,18.00
2018-08-31T18:54:58.829Z,17.90
2018-08-31T18:58:52.803Z,17.90
2018-08-31T19:02:47.105Z,17.90
2018-08-31T19:06:44.014Z,17.90
2018-08-31T19:10:39.004Z,17.80
2018-08-31T19:14:33.071Z,17.70
2018-08-31T19:18:27.668Z,17.60
2018-08-31T19:22:22.187Z,17.60
2018-08-31T19:26:16.156Z,17.50
2018-08-31T19:30:10.409Z,17.40
2018-08-31T19:34:04.372Z,17.30
2018-08-31T19:37:58.558Z,17.30
2018-08-31T19:41:52.513Z,17.20
2018-08-31T19:45:46.511Z,17.30
2018-08-31T19:49:40.844Z,17.20
2018-08-31T19:53:34.903Z,17.20
2018-08-31T19:57:28.972Z,17.00
2018-08-31T20:01:23.196Z,16.90
2018-08-31T20:05:17.124Z,16.70
2018-08-31T20:09:11.179Z,16.70
2018-08-31T20:13:05.202Z,16.60
2018-08-31T20:16:59.183Z,16.60
2018-08-31T20:20:53.239Z,16.60
2018-08-31T20:24:47.277Z,16.50
2018-08-31T20:28:42.350Z,16.40
2018-08-31T20:32:36.345Z,16.20
2018-08-31T20:36:30.827Z,16.10
2018-08-31T20:40:24.847Z,16.00
2018-08-31T20:44:18.845Z,16.10
2018-08-31T20:48:12.822Z,16.00
2018-08-31T20:52:06.769Z,15.90
2018-08-31T20:56:00.896Z,15.80
2018-08-31T20:59:55.504Z,15.60
2018-08-31T21:03:49.708Z,15.50
2018-08-31T21:07:44.317Z,15.50
2018-08-31T21:11:38.393Z,15.50
2018-08-31T21:15:32.428Z,15.40
2018-08-31T21:19:26.424Z,15.40
2018-08-31T21:23:20.528Z,15.30
2018-08-31T21:27:14.455Z,15.20
2018-08-31T21:31:08.577Z,15.20
2018-08-31T21:35:02.639Z,15.10
2018-08-31T21:38:56.735Z,15.00
2018-08-31T21:42:51.924Z,14.90
2018-08-31T21:46:46.879Z,14.90
2018-08-31T21:50:41.276Z,14.80
2018-08-31T21:54:35.355Z,14.80
2018-08-31T21:58:29.540Z,14.60
2018-08-31T22:02:24.086Z,14.60
2018-08-31T22:06:18.047Z,14.60
2018-08-31T22:10:12.101Z,14.60
2018-08-31T22:14:06.789Z,14.60
2018-08-31T22:18:00.832Z,14.60
2018-08-31T22:21:54.815Z,14.50
2018-08-31T22:25:49.143Z,14.40
2018-08-31T22:29:43.195Z,14.50
2018-08-31T22:33:37.425Z,14.50
2018-08-31T22:37:31.465Z,14.50
2018-08-31T22:41:25.742Z,14.40
2018-08-31T22:45:19.715Z,14.30
2018-08-31T22:49:13.704Z,14.30
2018-08-31T22:53:07.742Z,14.20
2018-08-31T22:57:01.719Z,14.20
2018-08-31T23:00:55.707Z,14.10
2018-08-31T23:04:49.671Z,14.00
2018-08-31T23:08:43.644Z,14.00
2018-08-31T23:12:37.659Z,14.00
2018-08-31T23:16:31.708Z,13.90
2018-08-31T23:20:25.667Z,13.90
2018-08-31T23:24:19.647Z,13.90
2018-08-31T23:28:13.627Z,14.00
2018-08-31T23:32:07.526Z,14.00
2018-08-31T23:36:01.626Z,13.90
2018-08-31T23:39:55.615Z,13.90
2018-08-31T23:43:49.529Z,13.80
2018-08-31T23:47:43.467Z,13.80
2018-08-31T23:51:37.443Z,13.70
2018-08-31T23:55:31.400Z,13.60
2018-08-31T23:59:25.340Z,13.50
